Time;durP1;ratioP1;P1;durP2;ratioP2;P2;SDS_P1;SDS_P2;PMS_P1;PMS_P2;Temp;Humidity;BMP_temperature;BMP_pressure;BME280_temperature;BME280_humidity;BME280_pressure;Samples;Min_cycle;Max_cycle;Signal;HPM_P1;HPM_P2
2022/12/11 00:01:33;;;;;;;47.87;22.17;;;1.60;99.90;;;;;;5042075;28;20116;-74
2022/12/11 00:03:59;;;;;;;47.10;19.50;;;1.60;99.90;;;;;;5042365;28;20672;-74
2022/12/11 00:06:24;;;;;;;41.53;21.70;;;1.60;99.90;;;;;;5044171;28;20037;-73
2022/12/11 00:08:52;;;;;;;51.03;23.37;;;1.60;99.90;;;;;;5030648;28;20042;-74
2022/12/11 00:11:18;;;;;;;48.27;22.27;;;1.60;99.90;;;;;;5038069;28;20029;-74
2022/12/11 00:13:43;;;;;;;54.23;22.03;;;1.60;99.90;;;;;;5028072;28;20046;-75
2022/12/11 00:16:09;;;;;;;56.90;22.13;;;1.60;99.90;;;;;;5032964;28;20414;-74
2022/12/11 00:18:35;;;;;;;53.97;23.43;;;1.60;99.90;;;;;;5031680;28;20077;-74
2022/12/11 00:21:03;;;;;;;76.33;25.80;;;1.60;99.90;;;;;;5041714;28;20041;-74
2022/12/11 00:23:28;;;;;;;46.90;23.27;;;1.60;99.90;;;;;;5042478;28;20041;-74
2022/12/11 00:25:54;;;;;;;51.83;22.83;;;1.60;99.90;;;;;;5032724;28;20083;-73
2022/12/11 00:28:21;;;;;;;49.57;21.50;;;1.60;99.90;;;;;;5025109;28;20042;-74
2022/12/11 00:30:46;;;;;;;54.43;22.03;;;1.60;99.90;;;;;;5029982;28;20045;-74
2022/12/11 00:33:13;;;;;;;45.27;22.03;;;1.60;99.90;;;;;;5033140;28;20099;-74
2022/12/11 00:35:41;;;;;;;52.87;24.07;;;1.70;99.90;;;;;;5036101;28;20479;-74
2022/12/11 00:38:06;;;;;;;53.43;24.87;;;1.60;99.90;;;;;;5024339;28;20044;-74
2022/12/11 00:40:36;;;;;;;50.23;22.90;;;1.70;99.90;;;;;;5024972;28;20041;-74
2022/12/11 00:43:02;;;;;;;50.40;25.20;;;1.70;99.90;;;;;;5035866;28;20516;-73
2022/12/11 00:45:28;;;;;;;41.50;21.23;;;1.70;99.90;;;;;;5030282;28;20042;-74
2022/12/11 00:47:53;;;;;;;52.30;20.13;;;1.60;99.90;;;;;;5024678;28;20518;-74
2022/12/11 00:50:19;;;;;;;64.50;23.03;;;1.70;99.90;;;;;;5023467;28;20144;-75
2022/12/11 00:52:44;;;;;;;46.97;22.00;;;1.70;99.90;;;;;;5023190;28;20037;-73
2022/12/11 00:55:10;;;;;;;53.90;22.80;;;1.70;99.90;;;;;;5024896;28;20473;-74
2022/12/11 00:57:36;;;;;;;45.23;21.27;;;1.70;99.90;;;;;;5024802;28;20091;-74
2022/12/11 01:00:05;;;;;;;50.77;23.43;;;1.70;99.90;;;;;;5023002;28;20037;-74
2022/12/11 01:02:32;;;;;;;62.43;23.57;;;1.70;99.90;;;;;;5027488;28;20084;-73
2022/12/11 01:04:57;;;;;;;60.27;25.43;;;1.70;99.90;;;;;;5027739;28;20134;-74
2022/12/11 01:07:23;;;;;;;61.00;23.80;;;1.70;99.90;;;;;;5024365;28;20041;-74
2022/12/11 01:12:33;;;;;;;48.70;20.30;;;1.70;99.90;;;;;;5012026;28;20102;-74
2022/12/11 01:14:59;;;;;;;44.20;22.23;;;1.70;99.90;;;;;;5033476;28;20037;-75
2022/12/11 01:17:24;;;;;;;48.83;20.77;;;1.70;99.90;;;;;;5023077;28;20459;-74
2022/12/11 01:19:53;;;;;;;40.50;20.50;;;1.70;99.90;;;;;;5024441;28;20065;-74
2022/12/11 01:22:18;;;;;;;40.80;19.50;;;1.70;99.90;;;;;;5024561;28;20380;-75
2022/12/11 01:24:44;;;;;;;58.70;24.60;;;1.70;99.90;;;;;;5043580;28;20071;-74
2022/12/11 01:27:10;;;;;;;55.83;23.93;;;1.70;99.90;;;;;;5029407;28;20049;-74
2022/12/11 01:29:35;;;;;;;46.23;23.17;;;1.70;99.90;;;;;;5024109;28;20052;-74
2022/12/11 01:32:01;;;;;;;60.60;22.47;;;1.70;99.90;;;;;;5040904;28;20088;-73
2022/12/11 01:34:30;;;;;;;43.90;21.53;;;1.70;99.90;;;;;;5042315;28;20045;-74
2022/12/11 01:36:56;;;;;;;49.13;20.67;;;1.70;99.90;;;;;;5042694;28;20182;-74
2022/12/11 01:39:22;;;;;;;52.97;23.07;;;1.70;99.90;;;;;;5041991;28;20037;-73
2022/12/11 01:41:48;;;;;;;42.17;21.73;;;1.70;99.90;;;;;;5043582;28;20099;-74
2022/12/11 01:44:13;;;;;;;37.20;20.47;;;1.80;99.90;;;;;;5042406;28;20045;-74
2022/12/11 01:46:39;;;;;;;61.63;21.33;;;1.80;99.90;;;;;;5040326;28;20052;-74
2022/12/11 01:49:09;;;;;;;39.60;19.13;;;1.80;99.90;;;;;;5022064;28;20033;-74
2022/12/11 01:51:55;;;;;;;49.17;22.33;;;1.80;99.90;;;;;;5023001;28;20038;-74
2022/12/11 01:54:23;;;;;;;48.30;20.83;;;1.80;99.90;;;;;;5026248;28;20095;-74
2022/12/11 01:56:51;;;;;;;43.93;23.80;;;1.80;99.90;;;;;;5036415;28;20067;-76
2022/12/11 01:59:22;;;;;;;57.83;23.77;;;1.80;99.90;;;;;;5035061;28;20041;-74
2022/12/11 02:02:06;;;;;;;46.83;20.63;;;1.80;99.90;;;;;;5022461;28;20515;-74
2022/12/11 02:04:34;;;;;;;51.53;23.23;;;1.80;99.90;;;;;;5037200;28;20047;-75
2022/12/11 02:06:59;;;;;;;44.07;19.27;;;1.80;99.90;;;;;;5043077;28;20052;-73
2022/12/11 02:09:28;;;;;;;47.23;22.00;;;1.80;99.90;;;;;;5041242;28;20033;-73
2022/12/11 02:12:24;;;;;;;50.67;23.23;;;1.80;99.90;;;;;;5025776;28;20041;-74
2022/12/11 02:15:16;;;;;;;54.90;22.53;;;1.90;99.90;;;;;;5022137;28;20038;-75
2022/12/11 02:17:51;;;;;;;59.70;25.10;;;1.90;99.90;;;;;;5023575;28;20038;-74
2022/12/11 02:20:31;;;;;;;36.87;21.03;;;1.90;99.90;;;;;;5023733;28;20069;-74
2022/12/11 02:23:18;;;;;;;42.10;20.57;;;1.90;99.90;;;;;;5023868;28;20045;-73
2022/12/11 02:26:20;;;;;;;43.60;23.53;;;1.90;99.90;;;;;;5010229;28;20037;-74
2022/12/11 02:28:57;;;;;;;53.50;24.80;;;1.90;99.90;;;;;;5016832;28;20053;-74
2022/12/11 02:31:33;;;;;;;40.20;21.80;;;1.90;99.90;;;;;;5023331;28;20060;-74
2022/12/11 02:34:10;;;;;;;50.73;25.73;;;1.90;99.90;;;;;;5036903;28;20048;-74
2022/12/11 02:36:40;;;;;;;38.70;22.83;;;1.90;99.90;;;;;;5026954;28;20033;-74
2022/12/11 02:39:09;;;;;;;40.83;23.57;;;2.00;99.90;;;;;;5021119;28;20144;-73
2022/12/11 02:41:36;;;;;;;40.33;22.67;;;2.00;99.90;;;;;;5033178;28;20122;-74
2022/12/11 02:44:03;;;;;;;45.20;23.87;;;2.00;99.90;;;;;;5041975;28;20033;-74
2022/12/11 02:46:31;;;;;;;45.67;22.93;;;2.00;99.90;;;;;;5033305;28;20033;-74
2022/12/11 02:48:57;;;;;;;47.43;23.57;;;2.00;99.90;;;;;;5041053;28;20124;-74
2022/12/11 02:51:28;;;;;;;50.53;26.07;;;2.00;99.90;;;;;;5042656;28;20480;-74
2022/12/11 02:53:57;;;;;;;59.03;24.63;;;2.00;99.90;;;;;;5040534;28;20045;-74
2022/12/11 02:56:34;;;;;;;62.13;28.30;;;2.00;99.90;;;;;;5025130;28;20042;-74
2022/12/11 02:59:07;;;;;;;55.03;24.03;;;2.00;99.90;;;;;;5026338;28;20064;-74
2022/12/11 03:01:33;;;;;;;52.73;26.17;;;2.00;99.90;;;;;;5035239;28;20033;-73
2022/12/11 03:03:58;;;;;;;51.07;27.03;;;2.00;99.90;;;;;;5031908;28;20439;-73
2022/12/11 03:06:30;;;;;;;48.17;22.53;;;2.00;99.90;;;;;;5021736;28;20045;-74
2022/12/11 03:08:56;;;;;;;57.83;27.20;;;2.00;99.90;;;;;;5040677;28;20380;-73
2022/12/11 03:11:22;;;;;;;65.13;29.47;;;2.00;99.90;;;;;;5041829;28;20163;-73
2022/12/11 03:13:47;;;;;;;72.50;30.20;;;2.00;99.90;;;;;;5040042;28;20076;-74
2022/12/11 03:16:33;;;;;;;57.70;27.43;;;2.00;99.90;;;;;;5027492;28;20438;-74
2022/12/11 03:19:04;;;;;;;55.60;28.00;;;2.00;99.90;;;;;;5029827;28;20041;-74
2022/12/11 03:21:54;;;;;;;71.10;26.80;;;2.00;99.90;;;;;;5038570;28;20048;-75
2022/12/11 03:24:22;;;;;;;60.17;26.23;;;2.00;99.90;;;;;;5039561;28;20053;-74
2022/12/11 03:26:57;;;;;;;60.73;27.83;;;2.00;99.90;;;;;;5033901;28;20051;-74
2022/12/11 03:29:29;;;;;;;45.07;24.73;;;2.00;99.90;;;;;;5031228;28;20056;-74
2022/12/11 03:32:05;;;;;;;70.73;28.73;;;2.00;99.90;;;;;;5040880;28;20044;-74
2022/12/11 03:34:49;;;;;;;56.30;24.63;;;2.10;99.90;;;;;;5025947;28;20037;-74
2022/12/11 03:37:16;;;;;;;63.80;27.07;;;2.10;99.90;;;;;;5023747;28;20412;-74
2022/12/11 03:39:50;;;;;;;64.97;27.37;;;2.00;99.90;;;;;;5005119;28;20053;-74
2022/12/11 03:42:18;;;;;;;49.58;25.73;;;2.10;99.90;;;;;;5013723;28;20034;-74
2022/12/11 03:44:48;;;;;;;67.97;31.47;;;2.10;99.90;;;;;;4989840;28;20539;-74
2022/12/11 03:47:18;;;;;;;62.13;30.47;;;2.10;99.90;;;;;;5029556;28;20037;-74
2022/12/11 03:49:46;;;;;;;67.40;28.63;;;2.10;99.90;;;;;;5028481;28;20040;-73
2022/12/11 03:52:13;;;;;;;60.33;27.10;;;2.10;99.90;;;;;;5043322;28;20103;-74
2022/12/11 03:54:42;;;;;;;94.50;31.17;;;2.00;99.90;;;;;;5046221;28;20045;-74
2022/12/11 03:57:11;;;;;;;76.07;29.93;;;2.10;99.90;;;;;;5045932;28;20041;-74
2022/12/11 03:59:37;;;;;;;62.10;27.97;;;2.10;99.90;;;;;;5027311;28;20443;-74
2022/12/11 04:02:09;;;;;;;77.80;30.50;;;2.10;99.90;;;;;;5024368;28;20041;-73
2022/12/11 04:04:40;;;;;;;65.40;29.87;;;2.00;99.90;;;;;;5025514;28;20058;-74
2022/12/11 04:07:06;;;;;;;64.77;30.20;;;2.00;99.90;;;;;;5023791;28;20092;-74
2022/12/11 04:09:32;;;;;;;73.00;29.80;;;2.00;99.90;;;;;;5024901;28;20046;-74
2022/12/11 04:11:57;;;;;;;64.37;29.63;;;2.00;99.90;;;;;;5023583;28;20052;-74
2022/12/11 04:17:07;;;;;;;62.87;27.33;;;2.00;99.90;;;;;;5025165;28;20064;-74
2022/12/11 04:25:05;;;;;;;56.87;26.40;;;2.00;99.90;;;;;;5033252;28;20064;-74
2022/12/11 04:27:49;;;;;;;73.70;30.13;;;2.10;99.90;;;;;;5026121;28;20057;-74
2022/12/11 04:30:18;;;;;;;52.53;24.43;;;2.00;99.90;;;;;;5024131;28;20086;-74
2022/12/11 04:32:44;;;;;;;55.57;28.27;;;2.00;99.90;;;;;;5024424;28;20053;-74
2022/12/11 04:35:11;;;;;;;66.73;23.83;;;2.00;99.90;;;;;;5025832;28;20547;-74
2022/12/11 04:37:37;;;;;;;73.00;29.07;;;2.00;99.90;;;;;;5044349;28;20040;-74
2022/12/11 04:40:08;;;;;;;68.07;28.63;;;2.00;99.90;;;;;;5034531;28;20048;-74
2022/12/11 04:42:34;;;;;;;61.50;27.30;;;2.00;99.90;;;;;;5036044;28;20158;-74
2022/12/11 04:45:00;;;;;;;54.53;26.37;;;2.00;99.90;;;;;;5024450;28;20576;-74
2022/12/11 04:47:26;;;;;;;49.03;24.07;;;2.10;99.90;;;;;;5024763;28;20037;-73
2022/12/11 04:49:52;;;;;;;65.10;23.50;;;2.10;99.90;;;;;;5032939;28;20040;-74
2022/12/11 04:52:18;;;;;;;54.90;24.20;;;2.10;99.90;;;;;;5042906;28;20561;-75
2022/12/11 04:54:43;;;;;;;61.57;22.77;;;2.10;99.90;;;;;;5043811;28;20026;-73
2022/12/11 04:57:09;;;;;;;60.47;26.10;;;2.00;99.90;;;;;;5034134;28;20049;-74
2022/12/11 04:59:36;;;;;;;63.13;26.87;;;2.00;99.90;;;;;;5030252;28;20386;-75
2022/12/11 05:02:02;;;;;;;45.20;24.03;;;2.00;99.90;;;;;;5044265;28;20568;-74
2022/12/11 05:04:32;;;;;;;69.77;27.40;;;2.00;99.90;;;;;;5042669;28;20084;-74
2022/12/11 05:07:00;;;;;;;50.53;21.70;;;2.10;99.90;;;;;;5025589;28;20558;-74
2022/12/11 05:09:26;;;;;;;66.07;25.53;;;2.10;99.90;;;;;;5024697;28;20184;-74
2022/12/11 05:11:52;;;;;;;62.90;24.33;;;2.10;99.90;;;;;;5025669;28;20041;-74
2022/12/11 05:14:18;;;;;;;58.80;27.87;;;2.00;99.90;;;;;;5027256;28;20052;-74
2022/12/11 05:16:44;;;;;;;50.43;22.43;;;2.10;99.90;;;;;;5025702;28;20112;-76
2022/12/11 05:19:09;;;;;;;46.63;21.43;;;2.10;99.90;;;;;;5024278;28;20059;-74
2022/12/11 05:21:35;;;;;;;74.90;26.80;;;2.10;99.90;;;;;;5023996;28;20059;-74
2022/12/11 05:24:01;;;;;;;56.03;25.07;;;2.10;99.90;;;;;;5029387;28;20045;-73
2022/12/11 05:26:27;;;;;;;42.87;21.67;;;2.10;99.90;;;;;;5022982;28;20025;-77
2022/12/11 05:28:53;;;;;;;59.07;29.53;;;2.10;99.90;;;;;;5022714;28;20531;-74
2022/12/11 05:31:25;;;;;;;50.00;23.20;;;2.10;99.90;;;;;;5006409;28;20064;-75
2022/12/11 05:33:51;;;;;;;56.77;24.00;;;2.00;99.90;;;;;;5022513;28;20053;-74
2022/12/11 05:36:20;;;;;;;49.83;22.63;;;2.00;99.90;;;;;;5023016;28;20036;-74
2022/12/11 05:38:47;;;;;;;61.30;25.67;;;2.10;99.90;;;;;;5014941;28;20048;-73
2022/12/11 05:41:16;;;;;;;54.30;22.53;;;2.00;99.90;;;;;;5043151;28;20052;-74
2022/12/11 05:43:42;;;;;;;42.77;22.90;;;2.10;99.90;;;;;;5040951;28;20049;-74
2022/12/11 05:46:20;;;;;;;71.53;27.73;;;2.10;99.90;;;;;;5023326;28;20491;-75
2022/12/11 05:48:48;;;;;;;38.70;19.13;;;2.10;99.90;;;;;;5038177;28;20045;-73
2022/12/11 05:51:14;;;;;;;48.27;24.10;;;2.10;99.90;;;;;;5025613;28;20060;-75
2022/12/11 05:53:41;;;;;;;62.60;24.67;;;2.10;99.90;;;;;;5027634;28;20116;-74
2022/12/11 05:56:11;;;;;;;48.23;21.20;;;2.10;99.90;;;;;;5041999;28;20045;-74
2022/12/11 05:58:37;;;;;;;48.57;22.40;;;2.10;99.90;;;;;;5042876;28;20584;-75
2022/12/11 06:01:09;;;;;;;46.73;23.33;;;2.10;99.90;;;;;;5042888;28;20037;-74
2022/12/11 06:03:34;;;;;;;40.88;23.05;;;2.10;99.90;;;;;;5024853;28;20318;-74
2022/12/11 06:06:01;;;;;;;40.60;22.00;;;2.10;99.90;;;;;;5043136;28;20048;-75
2022/12/11 06:08:27;;;;;;;38.43;21.73;;;2.20;99.90;;;;;;5041632;28;20406;-73
2022/12/11 06:10:53;;;;;;;48.60;24.57;;;2.10;99.90;;;;;;5026697;28;20048;-74
2022/12/11 06:13:18;;;;;;;41.93;21.37;;;2.10;99.90;;;;;;5035305;28;20041;-76
2022/12/11 06:15:44;;;;;;;55.10;23.73;;;2.10;99.90;;;;;;5021947;28;20049;-74
2022/12/11 06:18:10;;;;;;;45.87;21.60;;;2.10;99.90;;;;;;5021131;28;20098;-74
2022/12/11 06:20:35;;;;;;;52.50;21.90;;;2.10;99.90;;;;;;5028355;28;20107;-74
2022/12/11 06:23:01;;;;;;;43.40;18.27;;;2.10;99.90;;;;;;5029479;28;20050;-75
2022/12/11 06:25:27;;;;;;;36.60;20.13;;;2.10;99.90;;;;;;5028367;28;20051;-74
2022/12/11 06:27:53;;;;;;;50.10;24.80;;;2.10;99.90;;;;;;5022143;28;20154;-74
2022/12/11 06:30:19;;;;;;;61.00;25.87;;;2.20;99.90;;;;;;5022273;28;20080;-75
2022/12/11 06:32:45;;;;;;;50.93;24.73;;;2.10;99.90;;;;;;5037543;28;20049;-75
2022/12/11 06:35:11;;;;;;;48.27;21.53;;;2.10;99.90;;;;;;5023711;28;20099;-74
2022/12/11 06:37:38;;;;;;;58.00;25.80;;;2.10;99.90;;;;;;5041087;28;20120;-74
2022/12/11 06:40:04;;;;;;;55.23;24.97;;;2.20;99.90;;;;;;5041467;28;20072;-74
2022/12/11 06:42:30;;;;;;;53.47;21.77;;;2.10;99.90;;;;;;5025078;28;20049;-74
2022/12/11 06:44:58;;;;;;;56.07;23.83;;;2.10;99.90;;;;;;5043267;28;20063;-74
2022/12/11 06:47:28;;;;;;;41.00;20.83;;;2.10;99.90;;;;;;5040033;28;20053;-74
2022/12/11 06:49:54;;;;;;;59.57;24.87;;;2.10;99.90;;;;;;5030154;28;20049;-74
2022/12/11 06:52:24;;;;;;;50.17;21.87;;;2.10;99.90;;;;;;5038478;28;20368;-75
2022/12/11 06:54:50;;;;;;;37.83;18.43;;;2.10;99.90;;;;;;5041855;28;20041;-75
2022/12/11 06:57:16;;;;;;;50.00;21.33;;;2.10;99.90;;;;;;5043213;28;20411;-74
2022/12/11 06:59:42;;;;;;;42.23;20.80;;;2.20;99.90;;;;;;5042788;28;20458;-75
2022/12/11 07:02:13;;;;;;;63.80;25.97;;;2.20;99.90;;;;;;5042717;28;20640;-73
2022/12/11 07:04:39;;;;;;;44.87;20.67;;;2.20;99.90;;;;;;5042887;28;20079;-74
2022/12/11 07:07:05;;;;;;;41.93;20.53;;;2.20;99.90;;;;;;5039892;28;20053;-74
2022/12/11 07:09:30;;;;;;;59.03;23.70;;;2.10;99.90;;;;;;5023650;28;20042;-74
2022/12/11 07:11:56;;;;;;;35.40;17.10;;;2.10;99.90;;;;;;5025559;28;20045;-74
2022/12/11 07:14:22;;;;;;;41.13;22.50;;;2.10;99.90;;;;;;5046159;28;20595;-74
2022/12/11 07:16:47;;;;;;;48.80;23.50;;;2.20;99.90;;;;;;5047025;28;20344;-74
2022/12/11 07:19:13;;;;;;;50.23;20.27;;;2.20;99.90;;;;;;5046379;28;20041;-73
2022/12/11 07:21:38;;;;;;;44.33;21.27;;;2.20;99.90;;;;;;5044063;28;20148;-74
2022/12/11 07:24:04;;;;;;;52.80;21.47;;;2.20;99.90;;;;;;5044961;28;20098;-74
2022/12/11 07:26:30;;;;;;;45.20;21.93;;;2.20;99.90;;;;;;5026295;28;20528;-74
2022/12/11 07:28:57;;;;;;;39.70;22.00;;;2.20;99.90;;;;;;5024673;28;20107;-74
2022/12/11 07:31:24;;;;;;;45.50;20.30;;;2.20;99.90;;;;;;5027560;28;20140;-74
2022/12/11 07:33:54;;;;;;;46.07;20.37;;;2.10;99.90;;;;;;5037287;28;20116;-75
2022/12/11 07:36:21;;;;;;;53.83;20.97;;;2.20;99.90;;;;;;5026229;28;20042;-74
2022/12/11 07:38:46;;;;;;;48.23;23.23;;;2.20;99.90;;;;;;5025715;28;20045;-74
2022/12/11 07:41:13;;;;;;;45.17;22.00;;;2.20;99.90;;;;;;5025689;28;20095;-74
2022/12/11 07:43:41;;;;;;;50.13;22.77;;;2.20;99.90;;;;;;5035203;28;20045;-74
2022/12/11 07:46:13;;;;;;;67.77;22.23;;;2.20;99.90;;;;;;5032610;28;20113;-73
2022/12/11 07:48:40;;;;;;;63.35;23.95;;;2.20;99.90;;;;;;5044795;28;20175;-74
2022/12/11 07:51:13;;;;;;;49.23;23.53;;;2.30;99.90;;;;;;5032953;28;20069;-74
2022/12/11 07:53:42;;;;;;;45.60;22.23;;;2.20;99.90;;;;;;5025159;28;20076;-74
2022/12/11 07:56:08;;;;;;;47.50;24.53;;;2.20;99.90;;;;;;5024730;28;20080;-74
2022/12/11 07:58:34;;;;;;;59.60;24.27;;;2.20;99.90;;;;;;5021213;28;20539;-73
2022/12/11 08:01:00;;;;;;;49.17;23.73;;;2.20;99.90;;;;;;5020138;28;20543;-74
2022/12/11 08:03:26;;;;;;;53.43;25.60;;;2.20;99.90;;;;;;5023685;28;20119;-75
2022/12/11 08:05:52;;;;;;;49.13;24.27;;;2.20;99.90;;;;;;5024372;28;20045;-74
2022/12/11 08:08:18;;;;;;;55.10;22.63;;;2.20;99.90;;;;;;5022998;28;20057;-75
2022/12/11 08:10:44;;;;;;;51.80;26.30;;;2.20;99.90;;;;;;5026019;28;20041;-76
2022/12/11 08:13:10;;;;;;;58.23;25.83;;;2.20;99.90;;;;;;5026023;28;20045;-74
2022/12/11 08:15:36;;;;;;;50.13;24.10;;;2.20;99.90;;;;;;5023827;28;20037;-77
2022/12/11 08:18:02;;;;;;;59.13;25.67;;;2.20;99.90;;;;;;5026978;28;20510;-77
2022/12/11 08:20:27;;;;;;;48.63;23.30;;;2.20;99.90;;;;;;4999893;28;20041;-75
2022/12/11 08:22:53;;;;;;;56.40;23.53;;;2.20;99.90;;;;;;5004399;28;20111;-75
2022/12/11 08:25:18;;;;;;;53.50;26.47;;;2.20;99.90;;;;;;5023183;28;20483;-75
2022/12/11 08:27:44;;;;;;;40.47;21.43;;;2.20;99.90;;;;;;5034336;28;20057;-73
2022/12/11 08:30:10;;;;;;;48.00;22.00;;;2.30;99.90;;;;;;5036814;28;20048;-74
2022/12/11 08:32:36;;;;;;;44.30;21.00;;;2.20;99.90;;;;;;5030510;28;20041;-73
2022/12/11 08:35:02;;;;;;;50.35;22.77;;;2.30;99.90;;;;;;5036778;28;20048;-73
2022/12/11 08:37:28;;;;;;;45.67;23.87;;;2.20;99.90;;;;;;5044049;28;20403;-73
2022/12/11 08:39:54;;;;;;;74.23;25.23;;;2.20;99.90;;;;;;5038558;28;20037;-73
2022/12/11 08:42:19;;;;;;;41.28;20.42;;;2.30;99.90;;;;;;5028237;28;20381;-72
2022/12/11 08:44:45;;;;;;;43.30;24.00;;;2.30;99.90;;;;;;5025092;28;20172;-73
2022/12/11 08:47:11;;;;;;;38.63;24.13;;;2.30;99.90;;;;;;5040862;28;20040;-73
2022/12/11 08:49:37;;;;;;;51.50;22.40;;;2.30;99.90;;;;;;5034762;28;20098;-73
2022/12/11 08:52:03;;;;;;;47.17;24.50;;;2.30;99.90;;;;;;5023327;28;20200;-73
2022/12/11 08:54:29;;;;;;;50.57;21.33;;;2.30;99.90;;;;;;5024102;28;20037;-72
2022/12/11 08:56:54;;;;;;;62.97;22.83;;;2.30;99.90;;;;;;5024352;28;20099;-73
2022/12/11 08:59:20;;;;;;;35.07;21.23;;;2.40;99.90;;;;;;5024175;28;20244;-73
2022/12/11 09:01:45;;;;;;;40.63;22.42;;;2.30;99.90;;;;;;5007247;28;20057;-73
2022/12/11 09:04:11;;;;;;;41.60;21.57;;;2.30;99.90;;;;;;5023169;28;20053;-73
2022/12/11 09:06:37;;;;;;;48.13;23.60;;;2.30;99.90;;;;;;5023213;28;20042;-73
2022/12/11 09:09:03;;;;;;;47.00;23.03;;;2.30;99.90;;;;;;5021955;28;20419;-73
2022/12/11 09:11:32;;;;;;;49.87;24.27;;;2.30;99.90;;;;;;5006748;28;20381;-75
2022/12/11 09:13:58;;;;;;;42.07;22.53;;;2.40;99.90;;;;;;5014214;28;20045;-72
2022/12/11 09:16:26;;;;;;;48.90;26.57;;;2.40;99.90;;;;;;5024356;28;20049;-72
2022/12/11 09:18:53;;;;;;;44.00;21.20;;;2.30;99.90;;;;;;5022728;28;20125;-72
2022/12/11 09:21:22;;;;;;;46.57;22.00;;;2.40;99.90;;;;;;5022012;28;20037;-75
2022/12/11 09:23:48;;;;;;;38.07;21.03;;;2.40;99.90;;;;;;5038737;28;20119;-74
2022/12/11 09:26:16;;;;;;;48.27;24.13;;;2.40;99.90;;;;;;5037252;28;20043;-75
2022/12/11 09:28:43;;;;;;;40.03;20.75;;;2.40;99.90;;;;;;5022598;28;20720;-72
2022/12/11 09:31:10;;;;;;;38.13;21.63;;;2.40;99.90;;;;;;5023144;28;20642;-73
2022/12/11 09:33:36;;;;;;;38.83;19.83;;;2.40;99.90;;;;;;5021785;28;20048;-73
2022/12/11 09:36:02;;;;;;;45.17;20.80;;;2.50;99.90;;;;;;5023026;28;20037;-73
2022/12/11 09:38:29;;;;;;;41.03;23.03;;;2.50;99.90;;;;;;5022253;28;20034;-72
2022/12/11 09:40:55;;;;;;;46.80;22.07;;;2.50;99.90;;;;;;5023803;28;20038;-72
2022/12/11 09:43:44;;;;;;;47.13;23.47;;;2.50;99.90;;;;;;5023140;28;20075;-73
2022/12/11 09:46:13;;;;;;;35.63;20.83;;;2.50;99.90;;;;;;5030499;28;20232;-74
2022/12/11 09:48:49;;;;;;;57.07;21.73;;;2.50;99.90;;;;;;5023370;28;20045;-74
2022/12/11 09:51:26;;;;;;;35.80;21.10;;;2.50;99.90;;;;;;5029785;28;20457;-72
2022/12/11 09:53:58;;;;;;;36.17;19.43;;;2.50;99.90;;;;;;5022027;28;20037;-73
2022/12/11 09:56:35;;;;;;;41.70;20.10;;;2.50;99.90;;;;;;5022075;28;20046;-74
2022/12/11 09:59:33;;;;;;;39.38;21.65;;;2.50;99.90;;;;;;5023395;28;20058;-74
2022/12/11 10:02:21;;;;;;;38.58;18.77;;;2.60;99.90;;;;;;5018319;28;20077;-74
2022/12/11 10:05:32;;;;;;;30.83;18.27;;;2.60;99.90;;;;;;5013706;28;20049;-74
2022/12/11 10:08:38;;;;;;;33.58;17.23;;;2.60;99.90;;;;;;4985892;28;20057;-74
2022/12/11 10:11:31;;;;;;;28.93;18.83;;;2.60;99.90;;;;;;5026135;28;20041;-74
2022/12/11 10:14:05;;;;;;;39.77;19.37;;;2.60;99.90;;;;;;5020306;28;20045;-73
2022/12/11 10:16:42;;;;;;;38.30;17.88;;;2.60;99.90;;;;;;5018489;28;20123;-74
2022/12/11 10:19:17;;;;;;;33.03;17.43;;;2.70;99.90;;;;;;5022863;28;20392;-75
2022/12/11 10:21:43;;;;;;;27.93;17.03;;;2.70;99.90;;;;;;5013006;28;20404;-73
2022/12/11 10:24:20;;;;;;;35.03;17.60;;;2.70;99.90;;;;;;5020529;28;20106;-73
2022/12/11 10:26:46;;;;;;;27.90;14.33;;;2.70;99.90;;;;;;5019253;28;20707;-73
2022/12/11 10:29:14;;;;;;;26.90;17.10;;;2.70;99.90;;;;;;5023634;28;20041;-74
2022/12/11 10:31:54;;;;;;;37.00;18.97;;;2.70;99.90;;;;;;5021462;28;20376;-72
2022/12/11 10:34:41;;;;;;;33.50;17.98;;;2.70;99.90;;;;;;5018859;28;20051;-72
2022/12/11 10:37:06;;;;;;;31.75;18.65;;;2.70;99.90;;;;;;5018016;28;20091;-72
2022/12/11 10:39:32;;;;;;;26.50;14.65;;;2.80;99.90;;;;;;5020933;28;20495;-72
2022/12/11 10:41:58;;;;;;;34.93;19.57;;;2.70;99.90;;;;;;5020393;28;20077;-72
2022/12/11 10:44:29;;;;;;;34.50;19.10;;;2.80;99.90;;;;;;5003875;28;20321;-72
2022/12/11 10:47:16;;;;;;;24.98;15.15;;;2.80;99.90;;;;;;5021869;28;20041;-73
2022/12/11 10:49:52;;;;;;;34.40;18.43;;;2.80;99.90;;;;;;5025335;28;20060;-71
2022/12/11 10:52:22;;;;;;;35.63;20.15;;;2.80;99.90;;;;;;5024215;28;20132;-73
2022/12/11 10:54:58;;;;;;;36.22;19.52;;;2.80;99.90;;;;;;5018507;28;20042;-73
2022/12/11 10:57:34;;;;;;;29.40;19.13;;;2.80;99.90;;;;;;5003646;28;20368;-71
2022/12/11 11:00:00;;;;;;;37.65;20.70;;;2.80;99.90;;;;;;5019875;28;20446;-72
2022/12/11 11:02:40;;;;;;;39.03;20.10;;;2.80;99.90;;;;;;5028777;28;20041;-71
2022/12/11 11:05:26;;;;;;;34.28;17.45;;;2.80;99.90;;;;;;5025045;28;20046;-71
2022/12/11 11:08:13;;;;;;;30.40;17.53;;;2.80;99.90;;;;;;5017363;28;20072;-72
2022/12/11 11:10:59;;;;;;;43.13;20.08;;;2.80;99.90;;;;;;5016145;28;20456;-72
2022/12/11 11:13:27;;;;;;;43.72;20.02;;;2.80;99.90;;;;;;5024596;28;20144;-73
2022/12/11 11:16:14;;;;;;;37.97;19.87;;;2.80;99.90;;;;;;5026572;28;20372;-73
2022/12/11 11:18:40;;;;;;;45.43;23.23;;;2.80;99.90;;;;;;5025388;28;20550;-74
2022/12/11 11:21:15;;;;;;;32.22;18.85;;;2.80;99.90;;;;;;5023123;28;20157;-72
2022/12/11 11:23:41;;;;;;;43.08;20.02;;;2.80;99.90;;;;;;5008563;28;20053;-71
2022/12/11 11:26:08;;;;;;;34.72;18.08;;;2.80;99.90;;;;;;5024126;28;20484;-72
2022/12/11 11:28:37;;;;;;;36.10;20.20;;;2.80;99.90;;;;;;5024819;28;20398;-71
2022/12/11 11:31:10;;;;;;;28.90;19.42;;;2.80;99.90;;;;;;5002140;28;20037;-74
2022/12/11 11:33:44;;;;;;;38.72;19.55;;;2.90;99.90;;;;;;5024691;28;20094;-76
2022/12/11 11:36:22;;;;;;;27.23;18.92;;;2.90;99.90;;;;;;5010177;28;20097;-76
2022/12/11 11:39:01;;;;;;;36.42;19.35;;;2.90;99.90;;;;;;5025405;28;20049;-73
2022/12/11 11:41:51;;;;;;;41.95;18.27;;;2.90;99.90;;;;;;5025059;28;20049;-74
2022/12/11 11:44:25;;;;;;;37.58;19.00;;;2.90;99.90;;;;;;5023409;28;20116;-75
2022/12/11 11:47:29;;;;;;;32.78;20.48;;;2.90;99.90;;;;;;5022618;28;20053;-76
2022/12/11 11:50:09;;;;;;;39.33;18.85;;;3.00;99.90;;;;;;4986195;28;20534;-74
2022/12/11 11:52:59;;;;;;;43.95;18.80;;;2.90;99.90;;;;;;5022203;28;20550;-72
2022/12/11 11:55:44;;;;;;;31.23;16.00;;;2.90;99.90;;;;;;5023563;28;20048;-72
2022/12/11 11:58:21;;;;;;;33.05;18.38;;;3.00;99.90;;;;;;5030351;28;20107;-73
2022/12/11 12:00:47;;;;;;;33.08;15.95;;;3.00;99.90;;;;;;5028592;28;20041;-73
2022/12/11 12:03:17;;;;;;;28.60;19.77;;;3.00;99.90;;;;;;5043124;28;20523;-74
2022/12/11 12:06:11;;;;;;;38.90;18.93;;;3.00;99.90;;;;;;5042798;28;20049;-73
2022/12/11 12:08:58;;;;;;;32.53;16.90;;;3.00;99.90;;;;;;5036653;28;20042;-72
2022/12/11 12:11:33;;;;;;;33.22;21.70;;;3.00;99.90;;;;;;5027347;28;20042;-73
2022/12/11 12:14:05;;;;;;;32.40;18.83;;;3.00;99.90;;;;;;5027440;28;20049;-74
2022/12/11 12:16:33;;;;;;;34.78;19.48;;;3.00;99.90;;;;;;5030324;28;20433;-74
2022/12/11 12:19:14;;;;;;;33.23;18.70;;;3.00;99.90;;;;;;5032242;28;20042;-74
2022/12/11 12:21:45;;;;;;;30.40;18.00;;;3.00;99.90;;;;;;5003707;28;20423;-74
2022/12/11 12:24:36;;;;;;;32.38;17.83;;;3.00;99.90;;;;;;5019425;28;20380;-74
2022/12/11 12:27:22;;;;;;;32.58;17.05;;;3.00;99.90;;;;;;5024470;28;20037;-74
2022/12/11 12:30:13;;;;;;;30.50;18.40;;;3.10;99.90;;;;;;5022644;28;20049;-73
2022/12/11 12:33:03;;;;;;;27.20;16.42;;;3.10;99.90;;;;;;5016929;28;20049;-73
2022/12/11 12:35:36;;;;;;;30.90;17.95;;;3.10;99.90;;;;;;5020934;28;20056;-74
2022/12/11 12:38:12;;;;;;;39.92;20.83;;;3.10;99.90;;;;;;5023239;28;20041;-73
2022/12/11 12:41:07;;;;;;;27.48;16.23;;;3.10;99.90;;;;;;5023062;28;20416;-72
2022/12/11 12:43:45;;;;;;;23.95;16.27;;;3.10;99.90;;;;;;5023249;28;20133;-73
2022/12/11 12:46:22;;;;;;;35.65;18.95;;;3.10;99.90;;;;;;5023190;28;20492;-72
2022/12/11 12:48:48;;;;;;;25.90;19.48;;;3.10;99.90;;;;;;5017488;28;20049;-74
2022/12/11 12:51:16;;;;;;;25.73;16.65;;;3.10;99.90;;;;;;5033973;28;20044;-73
2022/12/11 12:53:48;;;;;;;28.38;17.48;;;3.10;99.90;;;;;;5024691;28;20112;-73
2022/12/11 12:56:15;;;;;;;26.33;15.55;;;3.10;99.90;;;;;;5012770;28;20463;-73
2022/12/11 12:58:43;;;;;;;24.67;17.30;;;3.10;99.90;;;;;;5029321;28;20510;-73
2022/12/11 13:01:24;;;;;;;24.20;16.98;;;3.10;99.90;;;;;;5021800;28;20041;-75
2022/12/11 13:03:54;;;;;;;27.90;17.10;;;3.10;99.90;;;;;;5033001;28;20063;-74